sensor_id;sensor_type;location;lat;lon;timestamp;P1;durP1;ratioP1;P2;durP2;ratioP2
23745;SDS011;12053;48.878;9.632;2022-07-25T00:01:54;14.63;;;9.32;;
23745;SDS011;12053;48.878;9.632;2022-07-25T00:04:22;11.40;;;9.23;;
23745;SDS011;12053;48.878;9.632;2022-07-25T00:06:50;9.65;;;8.77;;
23745;SDS011;12053;48.878;9.632;2022-07-25T00:09:17;11.73;;;9.25;;
23745;SDS011;12053;48.878;9.632;2022-07-25T00:11:44;10.15;;;8.68;;
23745;SDS011;12053;48.878;9.632;2022-07-25T00:14:11;10.80;;;8.88;;
23745;SDS011;12053;48.878;9.632;2022-07-25T00:16:38;11.80;;;8.90;;
23745;SDS011;12053;48.878;9.632;2022-07-25T00:19:06;10.10;;;8.35;;
23745;SDS011;12053;48.878;9.632;2022-07-25T00:21:33;13.13;;;8.48;;
23745;SDS011;12053;48.878;9.632;2022-07-25T00:24:00;10.07;;;8.98;;
23745;SDS011;12053;48.878;9.632;2022-07-25T00:26:28;9.20;;;8.30;;
23745;SDS011;12053;48.878;9.632;2022-07-25T00:28:55;9.65;;;8.65;;
23745;SDS011;12053;48.878;9.632;2022-07-25T00:31:22;10.10;;;8.65;;
23745;SDS011;12053;48.878;9.632;2022-07-25T00:33:50;9.75;;;8.57;;
23745;SDS011;12053;48.878;9.632;2022-07-25T00:36:17;9.93;;;8.80;;
23745;SDS011;12053;48.878;9.632;2022-07-25T00:38:44;9.75;;;8.77;;
23745;SDS011;12053;48.878;9.632;2022-07-25T00:41:11;9.68;;;8.63;;
23745;SDS011;12053;48.878;9.632;2022-07-25T00:43:41;11.63;;;8.95;;
23745;SDS011;12053;48.878;9.632;2022-07-25T00:46:12;12.55;;;8.93;;
23745;SDS011;12053;48.878;9.632;2022-07-25T00:48:44;11.27;;;8.40;;
23745;SDS011;12053;48.878;9.632;2022-07-25T00:51:11;10.45;;;8.70;;
23745;SDS011;12053;48.878;9.632;2022-07-25T00:53:38;9.30;;;8.35;;
23745;SDS011;12053;48.878;9.632;2022-07-25T00:56:06;9.82;;;8.93;;
23745;SDS011;12053;48.878;9.632;2022-07-25T00:58:34;10.85;;;9.40;;
23745;SDS011;12053;48.878;9.632;2022-07-25T01:01:01;10.13;;;9.18;;
23745;SDS011;12053;48.878;9.632;2022-07-25T01:03:29;9.82;;;8.82;;
23745;SDS011;12053;48.878;9.632;2022-07-25T01:05:57;11.52;;;8.65;;
23745;SDS011;12053;48.878;9.632;2022-07-25T01:08:24;11.20;;;8.95;;
23745;SDS011;12053;48.878;9.632;2022-07-25T01:10:51;9.75;;;8.77;;
23745;SDS011;12053;48.878;9.632;2022-07-25T01:13:19;9.75;;;8.75;;
23745;SDS011;12053;48.878;9.632;2022-07-25T01:15:46;9.18;;;8.38;;
23745;SDS011;12053;48.878;9.632;2022-07-25T01:18:13;10.23;;;9.23;;
23745;SDS011;12053;48.878;9.632;2022-07-25T01:20:41;10.35;;;9.07;;
23745;SDS011;12053;48.878;9.632;2022-07-25T01:23:08;10.07;;;9.18;;
23745;SDS011;12053;48.878;9.632;2022-07-25T01:25:35;9.40;;;8.50;;
23745;SDS011;12053;48.878;9.632;2022-07-25T01:28:02;10.70;;;9.02;;
23745;SDS011;12053;48.878;9.632;2022-07-25T01:30:29;10.40;;;8.85;;
23745;SDS011;12053;48.878;9.632;2022-07-25T01:32:56;9.60;;;8.70;;
23745;SDS011;12053;48.878;9.632;2022-07-25T01:35:24;10.93;;;9.40;;
23745;SDS011;12053;48.878;9.632;2022-07-25T01:37:51;10.15;;;9.20;;
23745;SDS011;12053;48.878;9.632;2022-07-25T01:40:18;10.20;;;9.25;;
23745;SDS011;12053;48.878;9.632;2022-07-25T01:42:45;10.50;;;9.50;;
23745;SDS011;12053;48.878;9.632;2022-07-25T01:45:12;10.63;;;9.63;;
23745;SDS011;12053;48.878;9.632;2022-07-25T01:47:39;9.93;;;8.93;;
23745;SDS011;12053;48.878;9.632;2022-07-25T01:50:07;10.93;;;9.50;;
23745;SDS011;12053;48.878;9.632;2022-07-25T01:52:35;10.32;;;9.25;;
23745;SDS011;12053;48.878;9.632;2022-07-25T01:55:02;10.63;;;9.63;;
23745;SDS011;12053;48.878;9.632;2022-07-25T01:57:31;9.73;;;8.73;;
23745;SDS011;12053;48.878;9.632;2022-07-25T02:00:02;10.25;;;9.20;;
23745;SDS011;12053;48.878;9.632;2022-07-25T02:02:29;10.70;;;9.63;;
23745;SDS011;12053;48.878;9.632;2022-07-25T02:04:56;11.23;;;9.40;;
23745;SDS011;12053;48.878;9.632;2022-07-25T02:07:24;9.88;;;8.88;;
23745;SDS011;12053;48.878;9.632;2022-07-25T02:09:51;12.05;;;9.98;;
23745;SDS011;12053;48.878;9.632;2022-07-25T02:12:22;13.05;;;10.07;;
23745;SDS011;12053;48.878;9.632;2022-07-25T02:14:49;10.68;;;9.57;;
23745;SDS011;12053;48.878;9.632;2022-07-25T02:17:16;10.82;;;9.82;;
23745;SDS011;12053;48.878;9.632;2022-07-25T02:19:43;11.25;;;9.85;;
23745;SDS011;12053;48.878;9.632;2022-07-25T02:22:11;10.52;;;9.43;;
23745;SDS011;12053;48.878;9.632;2022-07-25T02:24:38;12.25;;;10.98;;
23745;SDS011;12053;48.878;9.632;2022-07-25T02:27:06;11.43;;;9.38;;
23745;SDS011;12053;48.878;9.632;2022-07-25T02:29:33;14.73;;;9.95;;
23745;SDS011;12053;48.878;9.632;2022-07-25T02:32:01;11.30;;;9.82;;
23745;SDS011;12053;48.878;9.632;2022-07-25T02:34:28;11.63;;;9.60;;
23745;SDS011;12053;48.878;9.632;2022-07-25T02:36:55;12.65;;;10.57;;
23745;SDS011;12053;48.878;9.632;2022-07-25T02:39:22;11.13;;;10.02;;
23745;SDS011;12053;48.878;9.632;2022-07-25T02:41:50;12.95;;;9.38;;
23745;SDS011;12053;48.878;9.632;2022-07-25T02:44:17;10.40;;;9.40;;
23745;SDS011;12053;48.878;9.632;2022-07-25T02:46:44;13.02;;;9.10;;
23745;SDS011;12053;48.878;9.632;2022-07-25T02:49:12;11.50;;;9.93;;
23745;SDS011;12053;48.878;9.632;2022-07-25T02:51:39;12.65;;;10.32;;
23745;SDS011;12053;48.878;9.632;2022-07-25T02:54:06;10.60;;;9.55;;
23745;SDS011;12053;48.878;9.632;2022-07-25T02:56:33;10.52;;;9.45;;
23745;SDS011;12053;48.878;9.632;2022-07-25T02:59:01;10.93;;;9.82;;
23745;SDS011;12053;48.878;9.632;2022-07-25T03:01:28;15.40;;;10.05;;
23745;SDS011;12053;48.878;9.632;2022-07-25T03:03:55;9.85;;;8.85;;
23745;SDS011;12053;48.878;9.632;2022-07-25T03:06:23;12.35;;;9.98;;
23745;SDS011;12053;48.878;9.632;2022-07-25T03:08:50;10.73;;;9.73;;
23745;SDS011;12053;48.878;9.632;2022-07-25T03:11:18;11.27;;;9.98;;
23745;SDS011;12053;48.878;9.632;2022-07-25T03:13:45;16.17;;;10.07;;
23745;SDS011;12053;48.878;9.632;2022-07-25T03:16:13;13.25;;;9.35;;
23745;SDS011;12053;48.878;9.632;2022-07-25T03:18:40;11.43;;;10.23;;
23745;SDS011;12053;48.878;9.632;2022-07-25T03:21:07;12.82;;;9.10;;
23745;SDS011;12053;48.878;9.632;2022-07-25T03:23:34;12.13;;;9.70;;
23745;SDS011;12053;48.878;9.632;2022-07-25T03:26:01;11.48;;;9.95;;
23745;SDS011;12053;48.878;9.632;2022-07-25T03:28:28;10.90;;;9.80;;
23745;SDS011;12053;48.878;9.632;2022-07-25T03:30:56;11.02;;;9.95;;
23745;SDS011;12053;48.878;9.632;2022-07-25T03:33:23;12.30;;;10.32;;
23745;SDS011;12053;48.878;9.632;2022-07-25T03:35:50;11.65;;;10.25;;
23745;SDS011;12053;48.878;9.632;2022-07-25T03:38:17;11.77;;;10.00;;
23745;SDS011;12053;48.878;9.632;2022-07-25T03:40:44;12.45;;;10.43;;
23745;SDS011;12053;48.878;9.632;2022-07-25T03:43:12;11.15;;;10.05;;
23745;SDS011;12053;48.878;9.632;2022-07-25T03:45:39;11.93;;;10.43;;
23745;SDS011;12053;48.878;9.632;2022-07-25T03:48:06;13.50;;;10.18;;
23745;SDS011;12053;48.878;9.632;2022-07-25T03:50:33;10.60;;;9.60;;
23745;SDS011;12053;48.878;9.632;2022-07-25T03:53:00;11.30;;;10.00;;
23745;SDS011;12053;48.878;9.632;2022-07-25T03:55:28;11.52;;;10.30;;
23745;SDS011;12053;48.878;9.632;2022-07-25T03:57:55;12.05;;;10.45;;
23745;SDS011;12053;48.878;9.632;2022-07-25T04:00:22;14.20;;;11.52;;
23745;SDS011;12053;48.878;9.632;2022-07-25T04:02:49;13.30;;;10.05;;
23745;SDS011;12053;48.878;9.632;2022-07-25T04:05:17;13.43;;;11.13;;
23745;SDS011;12053;48.878;9.632;2022-07-25T04:07:44;13.82;;;12.40;;
23745;SDS011;12053;48.878;9.632;2022-07-25T04:10:11;13.13;;;11.57;;
23745;SDS011;12053;48.878;9.632;2022-07-25T04:12:39;12.60;;;10.77;;
23745;SDS011;12053;48.878;9.632;2022-07-25T04:15:06;14.25;;;12.68;;
23745;SDS011;12053;48.878;9.632;2022-07-25T04:17:33;17.05;;;12.57;;
23745;SDS011;12053;48.878;9.632;2022-07-25T04:20:04;14.18;;;11.93;;
23745;SDS011;12053;48.878;9.632;2022-07-25T04:22:32;15.95;;;13.48;;
23745;SDS011;12053;48.878;9.632;2022-07-25T04:25:00;15.70;;;11.45;;
23745;SDS011;12053;48.878;9.632;2022-07-25T04:27:27;12.23;;;10.93;;
23745;SDS011;12053;48.878;9.632;2022-07-25T04:29:54;14.38;;;11.25;;
23745;SDS011;12053;48.878;9.632;2022-07-25T04:32:22;16.05;;;12.25;;
23745;SDS011;12053;48.878;9.632;2022-07-25T04:34:49;16.77;;;12.30;;
23745;SDS011;12053;48.878;9.632;2022-07-25T04:37:17;14.20;;;11.55;;
23745;SDS011;12053;48.878;9.632;2022-07-25T04:39:44;13.70;;;11.13;;
23745;SDS011;12053;48.878;9.632;2022-07-25T04:42:11;14.75;;;11.57;;
23745;SDS011;12053;48.878;9.632;2022-07-25T04:44:39;14.95;;;11.88;;
23745;SDS011;12053;48.878;9.632;2022-07-25T04:47:06;12.27;;;10.95;;
23745;SDS011;12053;48.878;9.632;2022-07-25T04:49:33;15.13;;;12.50;;
23745;SDS011;12053;48.878;9.632;2022-07-25T04:52:00;16.00;;;11.82;;
23745;SDS011;12053;48.878;9.632;2022-07-25T04:54:27;17.52;;;13.02;;
23745;SDS011;12053;48.878;9.632;2022-07-25T04:56:55;16.80;;;11.73;;
23745;SDS011;12053;48.878;9.632;2022-07-25T04:59:22;16.73;;;10.70;;
23745;SDS011;12053;48.878;9.632;2022-07-25T05:01:49;13.73;;;10.65;;
23745;SDS011;12053;48.878;9.632;2022-07-25T05:04:16;12.38;;;10.70;;
23745;SDS011;12053;48.878;9.632;2022-07-25T05:06:43;14.43;;;10.82;;
23745;SDS011;12053;48.878;9.632;2022-07-25T05:09:11;12.85;;;10.45;;
23745;SDS011;12053;48.878;9.632;2022-07-25T05:11:38;13.77;;;11.05;;
23745;SDS011;12053;48.878;9.632;2022-07-25T05:14:12;14.05;;;11.10;;
23745;SDS011;12053;48.878;9.632;2022-07-25T05:16:39;12.10;;;10.65;;
23745;SDS011;12053;48.878;9.632;2022-07-25T05:19:06;15.43;;;10.90;;
23745;SDS011;12053;48.878;9.632;2022-07-25T05:21:34;13.15;;;10.80;;
23745;SDS011;12053;48.878;9.632;2022-07-25T05:24:03;12.95;;;10.05;;
23745;SDS011;12053;48.878;9.632;2022-07-25T05:26:31;10.80;;;9.70;;
23745;SDS011;12053;48.878;9.632;2022-07-25T05:28:58;10.68;;;9.57;;
23745;SDS011;12053;48.878;9.632;2022-07-25T05:31:25;12.48;;;10.30;;
23745;SDS011;12053;48.878;9.632;2022-07-25T05:33:52;12.10;;;10.85;;
23745;SDS011;12053;48.878;9.632;2022-07-25T05:36:19;12.75;;;9.90;;
23745;SDS011;12053;48.878;9.632;2022-07-25T05:38:47;10.23;;;9.00;;
23745;SDS011;12053;48.878;9.632;2022-07-25T05:41:14;14.45;;;9.60;;
23745;SDS011;12053;48.878;9.632;2022-07-25T05:43:41;10.40;;;8.82;;
23745;SDS011;12053;48.878;9.632;2022-07-25T05:46:11;9.80;;;8.60;;
23745;SDS011;12053;48.878;9.632;2022-07-25T05:48:38;13.45;;;8.75;;
23745;SDS011;12053;48.878;9.632;2022-07-25T05:51:05;10.00;;;9.05;;
23745;SDS011;12053;48.878;9.632;2022-07-25T05:53:33;10.38;;;8.25;;
23745;SDS011;12053;48.878;9.632;2022-07-25T05:56:00;9.45;;;8.55;;
23745;SDS011;12053;48.878;9.632;2022-07-25T05:58:27;10.88;;;8.73;;
23745;SDS011;12053;48.878;9.632;2022-07-25T06:00:56;9.75;;;8.80;;
23745;SDS011;12053;48.878;9.632;2022-07-25T06:03:23;8.77;;;7.63;;
23745;SDS011;12053;48.878;9.632;2022-07-25T06:05:50;8.75;;;7.93;;
23745;SDS011;12053;48.878;9.632;2022-07-25T06:08:17;9.15;;;8.25;;
23745;SDS011;12053;48.878;9.632;2022-07-25T06:10:47;9.27;;;8.38;;
23745;SDS011;12053;48.878;9.632;2022-07-25T06:13:14;8.95;;;8.15;;
23745;SDS011;12053;48.878;9.632;2022-07-25T06:15:45;10.18;;;8.07;;
23745;SDS011;12053;48.878;9.632;2022-07-25T06:18:13;10.90;;;8.23;;
23745;SDS011;12053;48.878;9.632;2022-07-25T06:20:40;9.48;;;8.32;;
23745;SDS011;12053;48.878;9.632;2022-07-25T06:23:07;9.00;;;8.20;;
23745;SDS011;12053;48.878;9.632;2022-07-25T06:25:34;8.68;;;7.88;;
23745;SDS011;12053;48.878;9.632;2022-07-25T06:28:02;9.52;;;8.43;;
23745;SDS011;12053;48.878;9.632;2022-07-25T06:30:29;8.82;;;8.02;;
23745;SDS011;12053;48.878;9.632;2022-07-25T06:32:56;9.23;;;7.82;;
23745;SDS011;12053;48.878;9.632;2022-07-25T06:35:24;9.05;;;8.13;;
23745;SDS011;12053;48.878;9.632;2022-07-25T06:37:51;9.85;;;8.10;;
23745;SDS011;12053;48.878;9.632;2022-07-25T06:40:18;9.95;;;7.97;;
23745;SDS011;12053;48.878;9.632;2022-07-25T06:42:46;8.63;;;7.82;;
23745;SDS011;12053;48.878;9.632;2022-07-25T06:45:13;9.25;;;8.35;;
23745;SDS011;12053;48.878;9.632;2022-07-25T06:47:41;11.77;;;8.60;;
23745;SDS011;12053;48.878;9.632;2022-07-25T06:50:10;10.10;;;8.45;;
23745;SDS011;12053;48.878;9.632;2022-07-25T06:52:38;11.20;;;9.07;;
23745;SDS011;12053;48.878;9.632;2022-07-25T06:55:06;8.88;;;7.97;;
23745;SDS011;12053;48.878;9.632;2022-07-25T06:57:33;9.32;;;8.38;;
23745;SDS011;12053;48.878;9.632;2022-07-25T07:00:01;9.07;;;8.10;;
23745;SDS011;12053;48.878;9.632;2022-07-25T07:02:31;10.35;;;8.15;;
23745;SDS011;12053;48.878;9.632;2022-07-25T07:04:58;8.50;;;7.70;;
23745;SDS011;12053;48.878;9.632;2022-07-25T07:07:26;9.00;;;8.10;;
23745;SDS011;12053;48.878;9.632;2022-07-25T07:09:53;8.90;;;8.02;;
23745;SDS011;12053;48.878;9.632;2022-07-25T07:12:20;9.48;;;7.85;;
23745;SDS011;12053;48.878;9.632;2022-07-25T07:14:47;8.88;;;7.97;;
23745;SDS011;12053;48.878;9.632;2022-07-25T07:17:14;8.43;;;7.57;;
23745;SDS011;12053;48.878;9.632;2022-07-25T07:19:42;11.20;;;8.00;;
23745;SDS011;12053;48.878;9.632;2022-07-25T07:22:10;9.48;;;8.63;;
23745;SDS011;12053;48.878;9.632;2022-07-25T07:24:38;8.88;;;7.97;;
23745;SDS011;12053;48.878;9.632;2022-07-25T07:27:09;9.38;;;8.48;;
23745;SDS011;12053;48.878;9.632;2022-07-25T07:29:36;8.50;;;7.63;;
23745;SDS011;12053;48.878;9.632;2022-07-25T07:32:04;11.32;;;8.70;;
23745;SDS011;12053;48.878;9.632;2022-07-25T07:34:32;11.23;;;8.07;;
23745;SDS011;12053;48.878;9.632;2022-07-25T07:36:59;9.40;;;8.50;;
23745;SDS011;12053;48.878;9.632;2022-07-25T07:39:27;10.00;;;8.50;;
23745;SDS011;12053;48.878;9.632;2022-07-25T07:41:54;10.73;;;8.48;;
23745;SDS011;12053;48.878;9.632;2022-07-25T07:44:22;10.40;;;9.13;;
23745;SDS011;12053;48.878;9.632;2022-07-25T07:46:49;9.48;;;8.57;;
23745;SDS011;12053;48.878;9.632;2022-07-25T07:49:16;9.40;;;8.50;;
23745;SDS011;12053;48.878;9.632;2022-07-25T07:51:43;9.68;;;7.80;;
23745;SDS011;12053;48.878;9.632;2022-07-25T07:54:10;9.38;;;8.57;;
23745;SDS011;12053;48.878;9.632;2022-07-25T07:56:56;9.20;;;8.30;;
23745;SDS011;12053;48.878;9.632;2022-07-25T07:59:24;9.95;;;8.10;;
23745;SDS011;12053;48.878;9.632;2022-07-25T08:01:51;9.05;;;7.90;;
23745;SDS011;12053;48.878;9.632;2022-07-25T08:04:18;9.38;;;8.48;;
23745;SDS011;12053;48.878;9.632;2022-07-25T08:06:45;8.68;;;7.88;;
23745;SDS011;12053;48.878;9.632;2022-07-25T08:09:12;9.15;;;8.25;;
23745;SDS011;12053;48.878;9.632;2022-07-25T08:11:39;8.95;;;8.05;;
23745;SDS011;12053;48.878;9.632;2022-07-25T08:14:07;9.55;;;8.40;;
23745;SDS011;12053;48.878;9.632;2022-07-25T08:16:34;8.98;;;8.13;;
23745;SDS011;12053;48.878;9.632;2022-07-25T08:19:02;8.77;;;7.97;;
23745;SDS011;12053;48.878;9.632;2022-07-25T08:21:29;9.35;;;8.45;;
23745;SDS011;12053;48.878;9.632;2022-07-25T08:23:56;9.35;;;8.45;;
23745;SDS011;12053;48.878;9.632;2022-07-25T08:26:23;10.27;;;8.48;;
23745;SDS011;12053;48.878;9.632;2022-07-25T08:28:53;9.27;;;8.38;;
23745;SDS011;12053;48.878;9.632;2022-07-25T08:31:40;11.55;;;8.90;;
23745;SDS011;12053;48.878;9.632;2022-07-25T08:34:07;9.05;;;8.25;;
23745;SDS011;12053;48.878;9.632;2022-07-25T08:36:36;9.57;;;8.68;;
23745;SDS011;12053;48.878;9.632;2022-07-25T08:39:03;9.45;;;8.52;;
23745;SDS011;12053;48.878;9.632;2022-07-25T08:41:31;9.25;;;8.45;;
23745;SDS011;12053;48.878;9.632;2022-07-25T08:43:59;9.57;;;8.57;;
23745;SDS011;12053;48.878;9.632;2022-07-25T08:46:27;9.88;;;8.07;;
23745;SDS011;12053;48.878;9.632;2022-07-25T08:48:55;10.40;;;8.80;;
23745;SDS011;12053;48.878;9.632;2022-07-25T08:51:23;9.05;;;8.20;;
23745;SDS011;12053;48.878;9.632;2022-07-25T08:53:50;10.07;;;8.68;;
23745;SDS011;12053;48.878;9.632;2022-07-25T08:56:18;9.40;;;8.57;;
23745;SDS011;12053;48.878;9.632;2022-07-25T08:58:46;9.75;;;8.65;;
23745;SDS011;12053;48.878;9.632;2022-07-25T09:01:14;10.63;;;9.13;;
23745;SDS011;12053;48.878;9.632;2022-07-25T09:03:42;9.68;;;8.80;;
23745;SDS011;12053;48.878;9.632;2022-07-25T09:06:28;8.68;;;7.85;;
23745;SDS011;12053;48.878;9.632;2022-07-25T09:08:57;9.35;;;8.45;;
23745;SDS011;12053;48.878;9.632;2022-07-25T09:11:28;11.20;;;9.07;;
23745;SDS011;12053;48.878;9.632;2022-07-25T09:13:57;10.48;;;8.90;;
23745;SDS011;12053;48.878;9.632;2022-07-25T09:16:27;8.90;;;8.10;;
23745;SDS011;12053;48.878;9.632;2022-07-25T09:19:08;9.55;;;8.02;;
23745;SDS011;12053;48.878;9.632;2022-07-25T09:21:36;8.35;;;7.45;;
23745;SDS011;12053;48.878;9.632;2022-07-25T09:24:08;9.63;;;8.15;;
23745;SDS011;12053;48.878;9.632;2022-07-25T09:26:49;8.85;;;7.95;;
23745;SDS011;12053;48.878;9.632;2022-07-25T09:29:30;10.27;;;8.43;;
23745;SDS011;12053;48.878;9.632;2022-07-25T09:31:58;9.73;;;8.10;;
23745;SDS011;12053;48.878;9.632;2022-07-25T09:34:32;8.93;;;7.97;;
23745;SDS011;12053;48.878;9.632;2022-07-25T09:37:00;7.47;;;6.78;;
23745;SDS011;12053;48.878;9.632;2022-07-25T09:39:32;7.90;;;7.10;;
23745;SDS011;12053;48.878;9.632;2022-07-25T09:41:59;7.32;;;6.32;;
23745;SDS011;12053;48.878;9.632;2022-07-25T09:44:26;7.93;;;7.25;;
23745;SDS011;12053;48.878;9.632;2022-07-25T09:46:57;8.35;;;6.93;;
23745;SDS011;12053;48.878;9.632;2022-07-25T09:49:24;7.88;;;7.18;;
23745;SDS011;12053;48.878;9.632;2022-07-25T09:51:52;7.65;;;6.97;;
23745;SDS011;12053;48.878;9.632;2022-07-25T09:54:19;8.15;;;7.15;;
23745;SDS011;12053;48.878;9.632;2022-07-25T09:56:46;8.07;;;6.97;;
23745;SDS011;12053;48.878;9.632;2022-07-25T09:59:13;7.03;;;6.32;;
23745;SDS011;12053;48.878;9.632;2022-07-25T10:01:44;12.13;;;6.32;;
23745;SDS011;12053;48.878;9.632;2022-07-25T10:09:15;7.38;;;5.95;;
23745;SDS011;12053;48.878;9.632;2022-07-25T10:12:01;8.18;;;6.80;;
23745;SDS011;12053;48.878;9.632;2022-07-25T10:14:28;6.40;;;5.80;;
23745;SDS011;12053;48.878;9.632;2022-07-25T10:16:56;6.72;;;6.13;;
23745;SDS011;12053;48.878;9.632;2022-07-25T10:22:02;7.53;;;6.78;;
23745;SDS011;12053;48.878;9.632;2022-07-25T10:24:33;8.32;;;7.43;;
23745;SDS011;12053;48.878;9.632;2022-07-25T10:27:09;7.57;;;6.90;;
23745;SDS011;12053;48.878;9.632;2022-07-25T10:29:38;8.50;;;7.60;;
23745;SDS011;12053;48.878;9.632;2022-07-25T10:32:10;7.97;;;7.28;;
23745;SDS011;12053;48.878;9.632;2022-07-25T10:37:09;11.38;;;7.38;;
23745;SDS011;12053;48.878;9.632;2022-07-25T10:39:37;9.82;;;7.05;;
23745;SDS011;12053;48.878;9.632;2022-07-25T10:42:05;8.05;;;7.28;;
23745;SDS011;12053;48.878;9.632;2022-07-25T10:44:46;7.90;;;7.13;;
23745;SDS011;12053;48.878;9.632;2022-07-25T10:47:14;10.10;;;7.40;;
23745;SDS011;12053;48.878;9.632;2022-07-25T10:49:43;9.40;;;8.40;;
23745;SDS011;12053;48.878;9.632;2022-07-25T10:52:38;9.25;;;7.72;;
23745;SDS011;12053;48.878;9.632;2022-07-25T10:55:06;8.98;;;7.97;;
23745;SDS011;12053;48.878;9.632;2022-07-25T10:57:33;9.27;;;7.90;;
23745;SDS011;12053;48.878;9.632;2022-07-25T11:00:07;9.43;;;7.47;;
23745;SDS011;12053;48.878;9.632;2022-07-25T11:02:34;9.15;;;8.18;;
23745;SDS011;12053;48.878;9.632;2022-07-25T11:05:02;9.73;;;8.30;;
23745;SDS011;12053;48.878;9.632;2022-07-25T11:07:29;8.73;;;7.82;;
23745;SDS011;12053;48.878;9.632;2022-07-25T11:10:02;11.45;;;8.18;;
23745;SDS011;12053;48.878;9.632;2022-07-25T11:12:30;8.27;;;7.57;;
23745;SDS011;12053;48.878;9.632;2022-07-25T11:15:01;9.00;;;8.20;;
23745;SDS011;12053;48.878;9.632;2022-07-25T11:17:29;10.13;;;9.05;;
23745;SDS011;12053;48.878;9.632;2022-07-25T11:20:01;9.65;;;8.63;;
23745;SDS011;12053;48.878;9.632;2022-07-25T11:22:29;8.10;;;7.32;;
23745;SDS011;12053;48.878;9.632;2022-07-25T11:24:57;9.35;;;8.50;;
23745;SDS011;12053;48.878;9.632;2022-07-25T11:27:34;9.75;;;8.75;;
23745;SDS011;12053;48.878;9.632;2022-07-25T11:30:11;9.85;;;8.40;;
23745;SDS011;12053;48.878;9.632;2022-07-25T11:32:51;11.48;;;7.80;;
23745;SDS011;12053;48.878;9.632;2022-07-25T11:37:49;9.07;;;8.00;;
23745;SDS011;12053;48.878;9.632;2022-07-25T11:40:18;9.18;;;8.38;;
23745;SDS011;12053;48.878;9.632;2022-07-25T11:42:47;9.57;;;8.68;;
23745;SDS011;12053;48.878;9.632;2022-07-25T11:45:15;9.73;;;8.68;;
23745;SDS011;12053;48.878;9.632;2022-07-25T11:47:42;11.07;;;8.50;;
23745;SDS011;12053;48.878;9.632;2022-07-25T11:50:09;8.98;;;8.07;;
23745;SDS011;12053;48.878;9.632;2022-07-25T11:52:40;9.30;;;7.78;;
23745;SDS011;12053;48.878;9.632;2022-07-25T11:55:09;8.60;;;7.90;;
23745;SDS011;12053;48.878;9.632;2022-07-25T11:57:38;9.05;;;8.15;;
23745;SDS011;12053;48.878;9.632;2022-07-25T12:00:15;10.27;;;8.30;;
23745;SDS011;12053;48.878;9.632;2022-07-25T12:02:44;8.98;;;8.18;;
23745;SDS011;12053;48.878;9.632;2022-07-25T12:05:12;8.68;;;7.82;;
23745;SDS011;12053;48.878;9.632;2022-07-25T12:07:41;8.68;;;7.93;;
23745;SDS011;12053;48.878;9.632;2022-07-25T12:10:15;10.00;;;9.10;;
23745;SDS011;12053;48.878;9.632;2022-07-25T12:15:10;8.57;;;7.78;;
23745;SDS011;12053;48.878;9.632;2022-07-25T12:17:39;8.93;;;8.13;;
23745;SDS011;12053;48.878;9.632;2022-07-25T12:20:11;8.82;;;8.07;;
23745;SDS011;12053;48.878;9.632;2022-07-25T12:22:39;10.82;;;8.50;;
23745;SDS011;12053;48.878;9.632;2022-07-25T12:25:06;8.95;;;8.05;;
23745;SDS011;12053;48.878;9.632;2022-07-25T12:27:34;9.40;;;8.60;;
23745;SDS011;12053;48.878;9.632;2022-07-25T12:30:03;9.93;;;8.30;;
23745;SDS011;12053;48.878;9.632;2022-07-25T12:32:30;9.10;;;8.20;;
23745;SDS011;12053;48.878;9.632;2022-07-25T12:34:58;8.73;;;8.02;;
23745;SDS011;12053;48.878;9.632;2022-07-25T12:37:25;8.82;;;8.02;;
23745;SDS011;12053;48.878;9.632;2022-07-25T12:39:54;8.52;;;7.78;;
23745;SDS011;12053;48.878;9.632;2022-07-25T12:42:22;11.05;;;8.23;;
23745;SDS011;12053;48.878;9.632;2022-07-25T12:44:49;11.48;;;8.43;;
23745;SDS011;12053;48.878;9.632;2022-07-25T12:47:16;8.30;;;7.60;;
23745;SDS011;12053;48.878;9.632;2022-07-25T12:49:44;8.23;;;7.50;;
23745;SDS011;12053;48.878;9.632;2022-07-25T12:52:11;11.68;;;7.70;;
23745;SDS011;12053;48.878;9.632;2022-07-25T12:54:38;9.05;;;7.38;;
23745;SDS011;12053;48.878;9.632;2022-07-25T12:57:05;9.88;;;7.72;;
23745;SDS011;12053;48.878;9.632;2022-07-25T12:59:32;8.57;;;7.72;;
23745;SDS011;12053;48.878;9.632;2022-07-25T13:02:00;9.75;;;8.02;;
23745;SDS011;12053;48.878;9.632;2022-07-25T13:04:27;8.13;;;7.43;;
23745;SDS011;12053;48.878;9.632;2022-07-25T13:06:54;11.05;;;7.75;;
23745;SDS011;12053;48.878;9.632;2022-07-25T13:09:22;8.55;;;7.65;;
23745;SDS011;12053;48.878;9.632;2022-07-25T13:11:49;7.88;;;7.10;;
23745;SDS011;12053;48.878;9.632;2022-07-25T13:14:17;8.10;;;7.35;;
23745;SDS011;12053;48.878;9.632;2022-07-25T13:16:44;8.52;;;6.75;;
23745;SDS011;12053;48.878;9.632;2022-07-25T13:19:12;7.70;;;6.90;;
23745;SDS011;12053;48.878;9.632;2022-07-25T13:21:39;10.43;;;6.88;;
23745;SDS011;12053;48.878;9.632;2022-07-25T13:24:08;6.93;;;6.32;;
23745;SDS011;12053;48.878;9.632;2022-07-25T13:26:36;7.03;;;6.43;;
23745;SDS011;12053;48.878;9.632;2022-07-25T13:29:03;6.40;;;5.90;;
23745;SDS011;12053;48.878;9.632;2022-07-25T13:31:38;7.25;;;6.55;;
23745;SDS011;12053;48.878;9.632;2022-07-25T13:34:06;7.70;;;5.97;;
23745;SDS011;12053;48.878;9.632;2022-07-25T13:36:34;7.10;;;6.13;;
23745;SDS011;12053;48.878;9.632;2022-07-25T13:39:02;6.30;;;5.70;;
23745;SDS011;12053;48.878;9.632;2022-07-25T13:41:30;6.75;;;6.03;;
23745;SDS011;12053;48.878;9.632;2022-07-25T13:43:57;9.27;;;6.00;;
23745;SDS011;12053;48.878;9.632;2022-07-25T13:46:25;6.20;;;5.60;;
23745;SDS011;12053;48.878;9.632;2022-07-25T13:48:53;8.65;;;5.97;;
23745;SDS011;12053;48.878;9.632;2022-07-25T13:51:20;8.38;;;6.00;;
23745;SDS011;12053;48.878;9.632;2022-07-25T13:53:48;6.75;;;5.90;;
23745;SDS011;12053;48.878;9.632;2022-07-25T13:56:15;9.27;;;5.90;;
23745;SDS011;12053;48.878;9.632;2022-07-25T13:58:42;10.27;;;6.25;;
23745;SDS011;12053;48.878;9.632;2022-07-25T14:01:13;9.57;;;5.82;;
23745;SDS011;12053;48.878;9.632;2022-07-25T14:03:40;9.13;;;5.78;;
23745;SDS011;12053;48.878;9.632;2022-07-25T14:06:08;7.63;;;5.72;;
23745;SDS011;12053;48.878;9.632;2022-07-25T14:08:38;7.47;;;6.18;;
23745;SDS011;12053;48.878;9.632;2022-07-25T14:11:06;7.32;;;5.85;;
23745;SDS011;12053;48.878;9.632;2022-07-25T14:13:34;6.50;;;5.20;;
23745;SDS011;12053;48.878;9.632;2022-07-25T14:16:01;6.57;;;5.88;;
23745;SDS011;12053;48.878;9.632;2022-07-25T14:18:29;8.70;;;6.20;;
23745;SDS011;12053;48.878;9.632;2022-07-25T14:20:57;12.57;;;6.53;;
23745;SDS011;12053;48.878;9.632;2022-07-25T14:23:25;6.47;;;5.43;;
23745;SDS011;12053;48.878;9.632;2022-07-25T14:25:56;7.38;;;6.38;;
23745;SDS011;12053;48.878;9.632;2022-07-25T14:28:23;6.57;;;5.95;;
23745;SDS011;12053;48.878;9.632;2022-07-25T14:30:50;10.18;;;6.88;;
23745;SDS011;12053;48.878;9.632;2022-07-25T14:33:18;9.43;;;6.20;;
23745;SDS011;12053;48.878;9.632;2022-07-25T14:35:45;8.50;;;6.05;;
23745;SDS011;12053;48.878;9.632;2022-07-25T14:38:12;7.95;;;6.35;;
23745;SDS011;12053;48.878;9.632;2022-07-25T14:40:40;8.10;;;6.70;;
23745;SDS011;12053;48.878;9.632;2022-07-25T14:43:07;9.05;;;6.38;;
23745;SDS011;12053;48.878;9.632;2022-07-25T14:45:35;11.35;;;6.60;;
23745;SDS011;12053;48.878;9.632;2022-07-25T14:48:05;9.02;;;6.70;;
23745;SDS011;12053;48.878;9.632;2022-07-25T14:50:32;30.42;;;8.82;;
23745;SDS011;12053;48.878;9.632;2022-07-25T14:52:59;18.95;;;8.88;;
23745;SDS011;12053;48.878;9.632;2022-07-25T14:55:26;8.60;;;7.60;;
23745;SDS011;12053;48.878;9.632;2022-07-25T14:57:54;8.40;;;7.53;;
23745;SDS011;12053;48.878;9.632;2022-07-25T15:00:22;9.85;;;8.35;;
23745;SDS011;12053;48.878;9.632;2022-07-25T15:02:54;10.55;;;8.73;;